Time;durP1;ratioP1;P1;durP2;ratioP2;P2;SDS_P1;SDS_P2;PMS_P1;PMS_P2;Temp;Humidity;BMP_temperature;BMP_pressure;BME280_temperature;BME280_humidity;BME280_pressure;Samples;Min_cycle;Max_cycle;Signal;HPM_P1;HPM_P2
2023/07/07 00:01:55;;;;;;;2.67;2.00;;;;;;;13.79;93.22;100790.78;4965344;28;20226;-66
2023/07/07 00:04:21;;;;;;;3.93;2.20;;;;;;;13.81;93.85;100783.69;4959128;28;20205;-67
2023/07/07 00:06:48;;;;;;;5.90;2.50;;;;;;;13.64;94.49;100788.03;4964709;28;20554;-66
2023/07/07 00:09:16;;;;;;;4.00;2.43;;;;;;;13.66;92.75;100787.16;4956093;28;20202;-66
2023/07/07 00:11:43;;;;;;;4.67;2.40;;;;;;;13.63;93.92;100783.59;4964671;28;20204;-67
2023/07/07 00:14:09;;;;;;;5.00;2.40;;;;;;;13.51;94.82;100789.69;4955940;28;20208;-66
2023/07/07 00:16:37;;;;;;;3.83;2.40;;;;;;;13.32;95.25;100795.75;4957088;28;20431;-66
2023/07/07 00:19:10;;;;;;;3.90;2.00;;;;;;;13.25;98.12;100793.91;4958442;28;20288;-67
2023/07/07 00:21:37;;;;;;;3.23;2.27;;;;;;;13.10;97.77;100797.28;4962658;28;20619;-67
2023/07/07 00:24:05;;;;;;;3.90;2.20;;;;;;;13.03;100.00;100801.66;4959699;28;20205;-67
2023/07/07 00:26:32;;;;;;;2.87;2.10;;;;;;;13.05;100.00;100799.88;4958123;28;20221;-67
2023/07/07 00:28:59;;;;;;;5.20;2.40;;;;;;;13.37;98.20;100799.34;4960743;28;20197;-66
2023/07/07 00:31:27;;;;;;;3.67;2.20;;;;;;;13.29;97.68;100798.38;4956844;28;20214;-67
2023/07/07 00:33:53;;;;;;;3.50;2.23;;;;;;;13.26;98.48;100801.03;4955195;28;20193;-67
2023/07/07 00:36:21;;;;;;;3.77;2.27;;;;;;;13.15;98.95;100799.09;4953642;28;20222;-66
2023/07/07 00:38:51;;;;;;;4.03;2.20;;;;;;;13.13;99.63;100800.84;4957853;28;20425;-66
2023/07/07 00:41:17;;;;;;;4.67;2.40;;;;;;;13.00;99.92;100801.63;4961284;28;20231;-66
2023/07/07 00:44:04;;;;;;;3.87;2.20;;;;;;;13.11;100.00;100802.59;4959830;28;20229;-66
2023/07/07 00:46:31;;;;;;;3.83;2.13;;;;;;;13.19;98.76;100802.69;4957635;28;20215;-67
2023/07/07 00:49:01;;;;;;;4.10;2.30;;;;;;;13.15;99.27;100791.13;4962931;28;20204;-68
2023/07/07 00:51:36;;;;;;;5.63;2.60;;;;;;;13.12;100.00;100796.41;4959050;28;20229;-67
2023/07/07 00:54:06;;;;;;;4.83;2.53;;;;;;;13.05;100.00;100802.56;4956924;28;20287;-67
2023/07/07 00:56:39;;;;;;;3.80;2.20;;;;;;;12.99;100.00;100798.94;4957943;28;20601;-68
2023/07/07 00:59:10;;;;;;;4.50;2.30;;;;;;;12.99;100.00;100804.25;4960661;28;20205;-68
2023/07/07 01:01:38;;;;;;;3.93;2.40;;;;;;;12.98;100.00;100795.41;4960073;28;20273;-67
2023/07/07 01:04:09;;;;;;;4.10;2.50;;;;;;;12.94;100.00;100801.56;4958741;28;20281;-68
2023/07/07 01:06:39;;;;;;;3.43;2.27;;;;;;;12.95;100.00;100799.78;4960710;28;20255;-68
2023/07/07 01:09:08;;;;;;;3.57;2.27;;;;;;;12.95;100.00;100798.03;4962156;28;20207;-68
2023/07/07 01:11:37;;;;;;;4.07;2.40;;;;;;;12.99;100.00;100793.63;4950688;28;20350;-66
2023/07/07 01:14:11;;;;;;;2.73;1.97;;;;;;;13.02;100.00;100798.97;4953270;28;20579;-67
2023/07/07 01:16:52;;;;;;;4.90;2.40;;;;;;;13.05;100.00;100813.19;4951075;28;20247;-69
2023/07/07 01:19:33;;;;;;;3.43;2.10;;;;;;;13.02;100.00;100810.50;4963451;28;20219;-69
2023/07/07 01:22:24;;;;;;;3.67;2.13;;;;;;;12.86;100.00;100806.81;4946751;28;20210;-67
2023/07/07 01:25:05;;;;;;;3.80;2.03;;;;;;;12.75;100.00;100807.53;4957104;28;20307;-70
2023/07/07 01:27:54;;;;;;;2.73;2.03;;;;;;;12.69;100.00;100804.81;4952747;28;20329;-68
2023/07/07 01:30:27;;;;;;;6.57;2.40;;;;;;;12.80;100.00;100808.47;4959427;28;20194;-69
2023/07/07 01:32:53;;;;;;;3.63;2.33;;;;;;;12.88;99.80;100809.47;4951426;28;20207;-68
2023/07/07 01:35:22;;;;;;;5.50;2.50;;;;;;;12.74;100.00;100811.97;4963214;28;20222;-67
2023/07/07 01:37:54;;;;;;;4.03;2.50;;;;;;;12.61;100.00;100814.47;4962186;28;20201;-69
2023/07/07 01:40:41;;;;;;;3.70;2.33;;;;;;;12.50;100.00;100807.25;4951765;28;20229;-69
2023/07/07 01:43:14;;;;;;;3.70;2.30;;;;;;;12.40;100.00;100808.00;4957654;28;20223;-69
2023/07/07 01:45:55;;;;;;;3.10;2.23;;;;;;;12.53;100.00;100803.75;4959341;28;20224;-68
2023/07/07 01:48:39;;;;;;;4.20;2.33;;;;;;;12.50;100.00;100801.94;4958963;28;20207;-69
2023/07/07 01:51:11;;;;;;;3.13;2.47;;;;;;;12.51;100.00;100798.41;4957130;28;20209;-70
2023/07/07 01:53:41;;;;;;;5.80;2.27;;;;;;;12.48;100.00;100806.34;4952885;28;20283;-67
2023/07/07 01:56:10;;;;;;;4.40;2.10;;;;;;;12.44;100.00;100804.53;4954533;28;20240;-70
2023/07/07 01:58:39;;;;;;;3.37;2.27;;;;;;;12.45;100.00;100806.31;4957215;28;20582;-71
2023/07/07 02:01:05;;;;;;;5.40;2.60;;;;;;;12.48;100.00;100811.66;4961753;28;20220;-71
2023/07/07 02:03:32;;;;;;;7.23;2.30;;;;;;;12.53;100.00;100812.63;4957625;28;20231;-73
2023/07/07 02:05:58;;;;;;;7.93;2.70;;;;;;;12.57;99.61;100808.22;4959637;28;20224;-72
2023/07/07 02:08:25;;;;;;;2.53;1.87;;;;;;;12.54;99.43;100810.84;4961446;28;20286;-71
2023/07/07 02:10:51;;;;;;;2.23;2.03;;;;;;;12.41;100.00;100808.94;4967844;28;20217;-74
2023/07/07 02:13:17;;;;;;;3.53;2.10;;;;;;;12.35;100.00;100811.47;4962138;28;20201;-75
2023/07/07 02:15:44;;;;;;;4.30;2.20;;;;;;;12.28;100.00;100809.63;4937451;28;20214;-72
2023/07/07 02:18:10;;;;;;;3.07;2.03;;;;;;;12.22;100.00;100818.41;4962924;28;20202;-75
2023/07/07 02:20:37;;;;;;;2.73;1.97;;;;;;;12.18;100.00;100820.13;4964168;28;20668;-75
2023/07/07 02:23:03;;;;;;;3.17;2.03;;;;;;;12.02;100.00;100820.78;4960234;28;20243;-75
2023/07/07 02:25:30;;;;;;;2.80;2.00;;;;;;;11.88;100.00;100820.56;4961930;28;20226;-74
2023/07/07 02:27:56;;;;;;;3.20;1.77;;;;;;;11.75;100.00;100822.97;4966902;28;20671;-73
2023/07/07 02:30:23;;;;;;;3.20;2.10;;;;;;;11.66;100.00;100823.75;4958247;28;20209;-76
2023/07/07 02:32:49;;;;;;;3.03;2.20;;;;;;;11.81;100.00;100823.09;4953198;28;20206;-75
2023/07/07 02:35:16;;;;;;;3.37;1.80;;;;;;;12.00;100.00;100825.16;4964590;28;20233;-74
2023/07/07 02:37:43;;;;;;;3.83;2.30;;;;;;;12.08;100.00;100826.19;4965128;28;20203;-75
2023/07/07 02:40:09;;;;;;;4.00;1.93;;;;;;;12.11;100.00;100823.56;4962328;28;20645;-73
2023/07/07 02:42:36;;;;;;;3.37;2.17;;;;;;;12.07;100.00;100827.06;4956521;28;20323;-75
2023/07/07 02:45:03;;;;;;;3.40;2.10;;;;;;;12.09;100.00;100827.97;4964250;28;20229;-75
2023/07/07 02:47:29;;;;;;;4.03;2.10;;;;;;;12.14;100.00;100822.72;4960735;28;20209;-75
2023/07/07 02:49:56;;;;;;;6.40;2.37;;;;;;;12.18;100.00;100819.22;4962962;28;20198;-75
2023/07/07 02:52:22;;;;;;;3.67;2.20;;;;;;;12.03;100.00;100821.69;4959045;28;20214;-73
2023/07/07 02:54:49;;;;;;;3.73;2.40;;;;;;;11.90;100.00;100823.25;4963362;28;20222;-73
2023/07/07 02:57:15;;;;;;;6.90;2.50;;;;;;;11.78;100.00;100825.72;4959374;28;20205;-73
2023/07/07 02:59:42;;;;;;;4.13;2.20;;;;;;;11.63;100.00;100829.00;4966584;28;20585;-71
2023/07/07 03:02:08;;;;;;;2.97;2.13;;;;;;;11.51;100.00;100836.72;4959818;28;20206;-73
2023/07/07 03:04:35;;;;;;;3.43;2.13;;;;;;;11.42;100.00;100832.16;4960260;28;20219;-70
2023/07/07 03:07:01;;;;;;;4.67;2.33;;;;;;;11.32;100.00;100832.88;4962000;28;20202;-73
2023/07/07 03:09:27;;;;;;;4.07;2.27;;;;;;;11.25;100.00;100831.91;4957129;28;20285;-70
2023/07/07 03:11:54;;;;;;;3.33;2.30;;;;;;;11.28;100.00;100839.00;4963870;28;20225;-70
2023/07/07 03:14:21;;;;;;;4.07;2.40;;;;;;;11.39;100.00;100840.06;4964379;28;20194;-67
2023/07/07 03:16:51;;;;;;;6.07;2.17;;;;;;;11.49;100.00;100841.13;4960489;28;21949;-69
2023/07/07 03:19:21;;;;;;;3.50;2.40;;;;;;;11.49;100.00;100844.66;4959811;28;20295;-68
2023/07/07 03:21:48;;;;;;;2.40;2.10;;;;;;;11.48;100.00;100840.22;4954967;28;20647;-67
2023/07/07 03:24:15;;;;;;;3.40;2.23;;;;;;;11.63;100.00;100833.41;4955896;28;20237;-67
2023/07/07 03:26:42;;;;;;;4.17;2.27;;;;;;;11.78;100.00;100836.34;4957963;28;20215;-68
2023/07/07 03:29:09;;;;;;;3.40;2.40;;;;;;;11.65;100.00;100848.50;4958705;28;20764;-67
2023/07/07 03:31:35;;;;;;;4.33;2.10;;;;;;;11.50;100.00;100853.50;4958728;28;20283;-67
2023/07/07 03:34:04;;;;;;;3.20;2.30;;;;;;;11.35;100.00;100856.81;4958270;28;20225;-68
2023/07/07 03:36:32;;;;;;;4.50;2.80;;;;;;;11.29;100.00;100844.34;4956212;28;20228;-66
2023/07/07 03:38:59;;;;;;;4.97;2.40;;;;;;;11.35;100.00;100855.91;4960792;28;20209;-66
2023/07/07 03:41:28;;;;;;;4.87;2.40;;;;;;;11.44;100.00;100843.69;4955048;28;20290;-66
2023/07/07 03:43:55;;;;;;;2.97;2.13;;;;;;;11.64;100.00;100841.41;4959902;28;20257;-65
2023/07/07 03:46:24;;;;;;;3.80;2.50;;;;;;;11.60;100.00;100856.34;4956211;28;20260;-65
2023/07/07 03:48:53;;;;;;;3.17;2.20;;;;;;;11.55;100.00;100854.47;4957639;28;20262;-65
2023/07/07 03:51:21;;;;;;;4.43;2.37;;;;;;;11.54;100.00;100850.03;4964055;28;20283;-65
2023/07/07 03:53:49;;;;;;;3.43;2.20;;;;;;;11.61;100.00;100852.84;4953303;28;20207;-65
2023/07/07 03:56:18;;;;;;;4.53;2.40;;;;;;;11.66;100.00;100855.56;4958221;28;20225;-67
2023/07/07 03:58:45;;;;;;;5.10;2.57;;;;;;;11.75;100.00;100860.13;4955335;28;20201;-68
2023/07/07 04:01:13;;;;;;;5.77;2.70;;;;;;;11.93;100.00;100861.34;4952944;28;20200;-67
2023/07/07 04:03:42;;;;;;;4.73;2.23;;;;;;;12.01;100.00;100857.91;4956838;28;20573;-66
2023/07/07 04:06:11;;;;;;;5.57;2.40;;;;;;;11.96;100.00;100862.25;4954113;28;20348;-67
2023/07/07 04:08:38;;;;;;;4.13;2.33;;;;;;;11.92;100.00;100874.59;4958192;28;20202;-67
2023/07/07 04:11:08;;;;;;;4.97;2.80;;;;;;;11.88;100.00;100868.34;4958522;28;20697;-67
2023/07/07 04:13:36;;;;;;;5.40;2.47;;;;;;;11.89;100.00;100863.91;4950869;28;20219;-68
2023/07/07 04:16:10;;;;;;;4.17;2.53;;;;;;;12.10;100.00;100863.38;4955311;28;20225;-70
2023/07/07 04:18:38;;;;;;;3.67;2.40;;;;;;;12.11;100.00;100868.69;4954919;28;20704;-71
2023/07/07 04:21:07;;;;;;;4.13;2.40;;;;;;;12.12;100.00;100873.13;4957332;28;20209;-74
2023/07/07 04:23:35;;;;;;;4.07;2.50;;;;;;;12.15;100.00;100870.53;4950994;28;20216;-73
2023/07/07 04:26:03;;;;;;;4.07;2.70;;;;;;;12.39;100.00;100872.63;4951935;28;20222;-74
2023/07/07 04:28:31;;;;;;;3.70;2.60;;;;;;;12.51;100.00;100867.50;4955957;28;20195;-75
2023/07/07 04:30:59;;;;;;;4.33;2.27;;;;;;;12.72;100.00;100865.97;4958087;28;20206;-76
2023/07/07 04:33:27;;;;;;;4.30;2.40;;;;;;;12.79;100.00;100868.72;4954356;28;20294;-76
2023/07/07 04:35:56;;;;;;;4.13;2.40;;;;;;;12.83;100.00;100862.59;4952074;28;20223;-74
2023/07/07 04:38:30;;;;;;;4.90;2.47;;;;;;;13.00;100.00;100865.44;4956126;28;20194;-75
2023/07/07 04:41:15;;;;;;;3.43;2.30;;;;;;;13.15;100.00;100862.91;4952291;28;20202;-74
2023/07/07 04:43:44;;;;;;;2.57;2.37;;;;;;;13.09;100.00;100867.28;4954673;28;20726;-76
2023/07/07 04:46:13;;;;;;;10.30;3.80;;;;;;;13.15;100.00;100860.25;4955377;28;20698;-70
2023/07/07 04:48:39;;;;;;;3.77;2.60;;;;;;;13.22;100.00;100865.72;4955674;28;20203;-70
2023/07/07 04:51:08;;;;;;;5.17;2.27;;;;;;;13.31;100.00;100866.69;4950850;28;20221;-69
2023/07/07 04:53:36;;;;;;;3.03;2.30;;;;;;;13.47;100.00;100870.38;4956282;28;20206;-69
2023/07/07 04:56:23;;;;;;;6.07;2.53;;;;;;;13.49;100.00;100880.16;4952027;28;20322;-69
2023/07/07 04:58:51;;;;;;;3.27;2.50;;;;;;;13.49;100.00;100879.25;4953034;28;20203;-69
2023/07/07 05:01:23;;;;;;;4.60;2.97;;;;;;;13.61;100.00;100883.78;4951002;28;20305;-67
2023/07/07 05:03:55;;;;;;;4.60;2.60;;;;;;;13.67;100.00;100887.44;4951809;28;20341;-67
2023/07/07 05:06:24;;;;;;;4.57;2.50;;;;;;;13.75;100.00;100890.16;4950000;28;20253;-68
2023/07/07 05:08:50;;;;;;;5.97;2.77;;;;;;;13.85;100.00;100889.34;4952117;28;20196;-67
2023/07/07 05:11:19;;;;;;;3.37;2.43;;;;;;;13.95;100.00;100890.28;4952756;28;20216;-67
2023/07/07 05:13:48;;;;;;;3.30;2.43;;;;;;;14.04;100.00;100891.28;4955481;28;20197;-66
2023/07/07 05:16:18;;;;;;;4.87;2.30;;;;;;;14.04;100.00;100901.94;4938856;28;20222;-66
2023/07/07 05:18:46;;;;;;;5.13;2.50;;;;;;;14.11;100.00;100894.88;4953499;28;20601;-66
2023/07/07 05:21:14;;;;;;;4.47;2.33;;;;;;;14.18;100.00;100904.69;4956111;28;20581;-66
2023/07/07 05:23:41;;;;;;;4.77;2.63;;;;;;;14.23;100.00;100902.94;4950323;28;20221;-67
2023/07/07 05:26:08;;;;;;;5.77;2.50;;;;;;;14.30;100.00;100904.75;4949932;28;20222;-67
2023/07/07 05:28:35;;;;;;;3.53;2.20;;;;;;;14.40;100.00;100903.91;4953367;28;20204;-67
2023/07/07 05:31:01;;;;;;;6.70;2.30;;;;;;;14.51;98.96;100901.38;4951404;28;20202;-66
2023/07/07 05:33:28;;;;;;;3.17;2.30;;;;;;;14.66;95.75;100905.88;4957574;28;20206;-66
2023/07/07 05:35:59;;;;;;;5.57;2.33;;;;;;;14.88;94.74;100902.44;4950740;28;20670;-66
2023/07/07 05:38:27;;;;;;;4.00;2.40;;;;;;;14.96;94.19;100908.69;4947064;28;20352;-65
2023/07/07 05:40:54;;;;;;;4.30;2.27;;;;;;;15.12;90.47;100911.41;4952199;28;20681;-64
2023/07/07 05:43:25;;;;;;;3.30;2.40;;;;;;;15.19;90.19;100907.88;4934955;28;20717;-65
2023/07/07 05:46:01;;;;;;;3.63;1.90;;;;;;;15.26;90.33;100896.34;4942199;29;20229;-65
2023/07/07 05:48:28;;;;;;;4.07;2.27;;;;;;;15.54;89.55;100907.94;4926449;29;20829;-64
2023/07/07 05:51:00;;;;;;;3.40;2.43;;;;;;;15.70;86.11;100901.78;4950135;28;20225;-67
2023/07/07 05:53:27;;;;;;;5.03;2.40;;;;;;;16.28;83.86;100907.09;4951454;28;20233;-67
2023/07/07 05:56:03;;;;;;;4.13;2.37;;;;;;;17.07;78.96;100903.31;4950478;28;20741;-64
2023/07/07 05:58:30;;;;;;;4.30;2.30;;;;;;;17.20;77.05;100899.66;4948988;28;20210;-65
2023/07/07 06:00:57;;;;;;;5.27;2.30;;;;;;;17.74;74.56;100908.28;4948921;28;20289;-65
2023/07/07 06:03:24;;;;;;;3.53;2.60;;;;;;;18.11;71.03;100900.84;4944464;28;20226;-65
2023/07/07 06:05:50;;;;;;;4.87;2.07;;;;;;;17.90;71.45;100906.38;4947097;28;20217;-65
2023/07/07 06:08:17;;;;;;;5.43;2.47;;;;;;;17.63;72.93;100900.31;4945557;29;20575;-65
2023/07/07 06:10:50;;;;;;;5.37;2.40;;;;;;;17.48;74.31;100890.56;4951474;28;20204;-66
2023/07/07 06:13:17;;;;;;;3.93;2.30;;;;;;;17.36;74.69;100887.97;4949156;28;20202;-66
2023/07/07 06:15:45;;;;;;;3.70;2.10;;;;;;;17.32;75.30;100880.88;4950081;29;20317;-66
2023/07/07 06:18:11;;;;;;;4.50;2.40;;;;;;;17.30;75.50;100890.69;4950627;29;20559;-66
2023/07/07 06:20:38;;;;;;;5.00;2.10;;;;;;;17.37;75.23;100892.44;4946388;29;20195;-66
2023/07/07 06:23:05;;;;;;;4.10;2.20;;;;;;;17.58;73.66;100888.72;4948521;29;20225;-66
2023/07/07 06:25:31;;;;;;;6.33;2.40;;;;;;;17.77;72.94;100892.19;4951337;29;20698;-66
2023/07/07 06:27:58;;;;;;;5.67;2.40;;;;;;;17.87;71.92;100891.19;4951722;29;20208;-66
2023/07/07 06:30:24;;;;;;;6.73;2.20;;;;;;;17.99;72.00;100879.47;4948721;29;20226;-66
2023/07/07 06:32:51;;;;;;;6.03;2.10;;;;;;;18.34;71.43;100882.72;4951606;29;20293;-66
2023/07/07 06:35:17;;;;;;;5.37;2.03;;;;;;;18.51;70.40;100877.19;4950440;29;20225;-66
2023/07/07 06:37:44;;;;;;;4.27;2.20;;;;;;;18.52;68.75;100873.59;4949216;29;20203;-66
2023/07/07 06:40:14;;;;;;;5.07;2.43;;;;;;;18.66;68.44;100868.09;4948345;29;20202;-66
2023/07/07 06:42:41;;;;;;;6.83;2.20;;;;;;;18.78;65.39;100884.91;4951543;29;20222;-66
2023/07/07 06:45:07;;;;;;;6.50;2.07;;;;;;;18.93;67.40;100886.53;4951085;29;20226;-66
2023/07/07 06:47:34;;;;;;;3.23;2.13;;;;;;;19.04;71.29;100889.06;4950220;29;20480;-66
2023/07/07 06:50:00;;;;;;;11.80;2.57;;;;;;;19.15;65.42;100887.13;4948118;29;20198;-67
2023/07/07 06:52:27;;;;;;;13.33;2.80;;;;;;;19.35;60.67;100886.88;4950836;29;20199;-66
2023/07/07 06:54:55;;;;;;;12.10;2.43;;;;;;;19.54;59.00;100887.50;4949916;28;20301;-66
2023/07/07 06:57:21;;;;;;;11.40;2.73;;;;;;;19.81;57.69;100884.38;4951729;29;20889;-68
2023/07/07 06:59:47;;;;;;;12.70;2.50;;;;;;;20.02;58.74;100880.47;4954914;29;20198;-68
2023/07/07 07:02:14;;;;;;;8.93;2.60;;;;;;;20.12;64.47;100876.69;4953792;29;20206;-67
2023/07/07 07:04:40;;;;;;;7.93;2.40;;;;;;;20.26;63.99;100880.00;4951655;29;20592;-67
2023/07/07 07:07:10;;;;;;;9.02;2.53;;;;;;;20.37;63.38;100874.41;4954595;29;20289;-68
2023/07/07 07:09:36;;;;;;;5.22;2.40;;;;;;;20.53;61.03;100873.25;4953519;28;20693;-68
2023/07/07 07:12:03;;;;;;;5.63;2.65;;;;;;;21.23;58.10;100873.59;4954722;29;20210;-68
2023/07/07 07:14:30;;;;;;;9.70;2.70;;;;;;;23.40;51.21;100871.34;4951704;29;20225;-67
2023/07/07 07:16:56;;;;;;;11.48;2.47;;;;;;;26.68;41.56;100862.38;4954008;29;20289;-68
2023/07/07 07:19:22;;;;;;;6.68;2.60;;;;;;;28.97;34.04;100868.13;4954315;29;20267;-67
2023/07/07 07:21:49;;;;;;;9.93;2.70;;;;;;;30.35;33.63;100871.06;4953936;29;20225;-68
2023/07/07 07:24:19;;;;;;;5.75;2.42;;;;;;;31.78;30.44;100881.09;4952835;29;20229;-68
2023/07/07 07:26:45;;;;;;;4.38;2.15;;;;;;;32.66;28.27;100868.63;4953969;29;20224;-68
2023/07/07 07:29:14;;;;;;;6.47;1.92;;;;;;;33.36;25.13;100879.16;4952508;29;20238;-67
2023/07/07 07:31:41;;;;;;;3.70;2.00;;;;;;;33.20;23.86;100872.00;4951266;29;20652;-67
2023/07/07 07:34:29;;;;;;;7.97;2.28;;;;;;;33.38;24.01;100879.94;4954027;29;20254;-68
2023/07/07 07:36:59;;;;;;;3.45;1.70;;;;;;;33.64;22.74;100887.13;4954560;29;20270;-68
2023/07/07 07:39:25;;;;;;;3.15;1.77;;;;;;;34.04;22.11;100875.88;4953168;29;20258;-69
2023/07/07 07:41:53;;;;;;;4.68;1.98;;;;;;;34.59;21.52;100875.22;4952709;29;20701;-69
2023/07/07 07:44:22;;;;;;;5.78;2.60;;;;;;;34.52;21.61;100882.22;4953683;29;20265;-69
2023/07/07 07:46:50;;;;;;;3.85;1.90;;;;;;;34.35;21.77;100886.25;4954458;29;20285;-69
2023/07/07 07:49:17;;;;;;;5.22;1.83;;;;;;;34.16;22.22;100884.06;4952835;29;20195;-69
2023/07/07 07:51:44;;;;;;;4.60;1.90;;;;;;;34.08;22.02;100886.53;4953182;29;20206;-69
2023/07/07 07:54:12;;;;;;;4.80;1.90;;;;;;;34.35;21.24;100885.38;4953555;29;20761;-69
2023/07/07 07:56:39;;;;;;;3.47;1.88;;;;;;;34.25;21.96;100891.59;4953879;29;20253;-69
2023/07/07 07:59:06;;;;;;;3.60;1.98;;;;;;;34.15;22.31;100892.41;4951896;29;20616;-69
2023/07/07 08:01:34;;;;;;;3.85;2.00;;;;;;;34.52;21.57;100888.59;4953879;29;20735;-68
2023/07/07 08:04:00;;;;;;;5.10;1.73;;;;;;;34.21;22.05;100894.69;4953812;29;20218;-69
2023/07/07 08:06:26;;;;;;;5.18;2.10;;;;;;;33.75;22.77;100891.81;4952246;28;20249;-69
2023/07/07 08:08:53;;;;;;;3.40;2.20;;;;;;;33.65;22.30;100894.38;4952546;29;20586;-68
2023/07/07 08:11:46;;;;;;;4.00;2.13;;;;;;;33.71;22.45;100896.66;4953610;29;20206;-68
2023/07/07 08:14:15;;;;;;;4.45;1.92;;;;;;;33.42;22.75;100887.84;4952175;28;20209;-69
2023/07/07 08:16:41;;;;;;;3.33;1.70;;;;;;;33.12;23.37;100881.81;4952760;29;20245;-69
2023/07/07 08:19:08;;;;;;;6.38;2.38;;;;;;;32.00;24.51;100884.13;4932054;29;20210;-69
2023/07/07 08:21:35;;;;;;;6.20;2.00;;;;;;;31.84;24.68;100891.66;4952283;29;20199;-69
2023/07/07 08:24:03;;;;;;;6.78;2.40;;;;;;;31.73;24.53;100891.50;4953201;29;20226;-69
2023/07/07 08:26:29;;;;;;;4.25;1.98;;;;;;;30.96;25.32;100886.44;4953524;29;20218;-68
2023/07/07 08:28:57;;;;;;;3.08;1.83;;;;;;;30.81;26.52;100885.53;4951622;29;20209;-69
2023/07/07 08:31:23;;;;;;;4.03;1.92;;;;;;;30.52;26.98;100885.47;4952392;29;20216;-69
2023/07/07 08:33:52;;;;;;;3.40;1.90;;;;;;;30.04;26.86;100888.47;4953265;29;20202;-69
2023/07/07 08:36:27;;;;;;;3.05;1.95;;;;;;;29.75;27.55;100876.47;4953405;29;20218;-69
2023/07/07 08:38:53;;;;;;;8.60;2.40;;;;;;;29.01;27.79;100877.00;4951626;29;20198;-69
2023/07/07 08:41:20;;;;;;;7.85;2.40;;;;;;;28.73;29.62;100882.16;4953575;29;20575;-69
2023/07/07 08:43:47;;;;;;;9.55;2.40;;;;;;;28.43;29.74;100882.88;4948660;28;20285;-69
2023/07/07 08:46:25;;;;;;;8.15;2.15;;;;;;;28.33;30.38;100881.56;4951500;29;20233;-68
2023/07/07 08:49:08;;;;;;;3.55;2.00;;;;;;;28.08;30.10;100881.94;4952079;29;20198;-68
2023/07/07 08:51:46;;;;;;;3.45;2.10;;;;;;;28.17;29.39;100878.75;4952113;29;20225;-68
2023/07/07 08:54:20;;;;;;;3.92;2.20;;;;;;;28.14;29.58;100880.75;4953139;29;20285;-68
2023/07/07 08:57:04;;;;;;;4.88;2.20;;;;;;;27.73;29.85;100875.56;4951704;29;20705;-68
2023/07/07 08:59:59;;;;;;;8.55;2.42;;;;;;;27.76;30.81;100876.28;4951853;29;20202;-68
2023/07/07 09:02:48;;;;;;;4.95;2.15;;;;;;;27.88;30.77;100868.44;4952246;29;20666;-68
2023/07/07 09:05:20;;;;;;;3.17;2.03;;;;;;;27.89;30.37;100868.38;4952176;29;20663;-68
2023/07/07 09:07:58;;;;;;;5.88;2.38;;;;;;;27.87;29.67;100873.00;4951239;29;20209;-69
2023/07/07 09:10:42;;;;;;;5.82;2.33;;;;;;;28.01;30.08;100869.56;4951877;29;20236;-69
2023/07/07 09:13:08;;;;;;;4.25;2.15;;;;;;;27.97;29.53;100874.28;4952556;29;20210;-68
2023/07/07 09:15:40;;;;;;;4.32;2.20;;;;;;;27.54;30.13;100867.38;4950945;29;20266;-69
2023/07/07 09:18:32;;;;;;;5.50;2.33;;;;;;;27.47;30.55;100861.34;4950359;28;20285;-68
2023/07/07 09:21:03;;;;;;;7.47;2.20;;;;;;;27.24;30.53;100867.03;4941616;29;20201;-68
2023/07/07 09:23:39;;;;;;;4.22;2.20;;;;;;;27.44;29.42;100858.78;4949525;29;20575;-68
2023/07/07 09:26:32;;;;;;;3.22;2.47;;;;;;;27.43;29.51;100864.31;4929793;28;20628;-68
2023/07/07 09:29:00;;;;;;;6.18;2.25;;;;;;;27.41;29.51;100856.22;4946260;28;20205;-69
2023/07/07 09:31:42;;;;;;;8.02;2.40;;;;;;;27.68;29.80;100856.72;4942685;28;20210;-69
2023/07/07 09:34:14;;;;;;;4.88;2.40;;;;;;;28.07;29.14;100862.00;4942403;29;20254;-68
2023/07/07 09:37:18;;;;;;;5.28;2.30;;;;;;;28.02;29.28;100861.34;4935178;28;20229;-69
2023/07/07 09:40:26;;;;;;;4.50;2.40;;;;;;;28.21;29.33;100854.94;4930087;28;20210;-68
2023/07/07 09:43:16;;;;;;;3.22;2.20;;;;;;;28.41;28.26;100852.06;4934067;29;20261;-68
2023/07/07 09:45:52;;;;;;;3.35;2.03;;;;;;;28.51;28.06;100852.47;4947876;29;20238;-68
2023/07/07 09:48:38;;;;;;;10.00;2.63;;;;;;;28.59;28.25;100848.38;4945611;28;20194;-68
2023/07/07 09:51:33;;;;;;;4.45;2.22;;;;;;;28.49;27.49;100848.97;4949450;29;20218;-68
2023/07/07 09:54:00;;;;;;;6.45;2.83;;;;;;;28.11;28.73;100857.28;4948325;29;20234;-69
2023/07/07 09:56:41;;;;;;;2.83;2.15;;;;;;;28.32;28.75;100847.09;4946146;29;20217;-66
2023/07/07 09:59:16;;;;;;;6.65;2.45;;;;;;;28.15;28.22;100845.25;4942818;29;20210;-66
2023/07/07 10:01:45;;;;;;;5.93;2.65;;;;;;;28.25;28.56;100857.47;4949256;29;20665;-67
2023/07/07 10:04:14;;;;;;;5.35;2.53;;;;;;;28.07;28.40;100837.50;4947845;29;20205;-66
2023/07/07 10:06:49;;;;;;;3.80;2.60;;;;;;;27.85;28.35;100839.53;4945073;28;20226;-67
2023/07/07 10:09:16;;;;;;;3.70;2.28;;;;;;;28.12;28.55;100842.69;4948144;28;20216;-66
2023/07/07 10:11:44;;;;;;;3.17;2.40;;;;;;;28.43;28.88;100832.94;4948997;28;20222;-66
2023/07/07 10:14:17;;;;;;;5.07;2.40;;;;;;;28.77;27.88;100832.84;4948314;29;20221;-67
2023/07/07 10:17:08;;;;;;;4.55;2.67;;;;;;;29.08;28.03;100832.06;4945970;29;20277;-66
2023/07/07 10:19:50;;;;;;;4.05;2.42;;;;;;;29.47;27.45;100838.97;4946484;29;20203;-66
2023/07/07 10:22:16;;;;;;;4.70;2.30;;;;;;;29.61;27.16;100839.03;4948923;29;20281;-66
2023/07/07 10:24:43;;;;;;;3.65;2.17;;;;;;;29.72;26.90;100838.44;4941163;28;20222;-67
2023/07/07 10:27:11;;;;;;;4.43;2.45;;;;;;;29.72;26.75;100830.25;4948702;29;20737;-67
2023/07/07 10:29:40;;;;;;;4.82;2.60;;;;;;;29.85;27.18;100825.81;4948663;28;20498;-66
2023/07/07 10:32:17;;;;;;;6.45;2.25;;;;;;;29.95;26.55;100819.69;4948596;29;20202;-66
2023/07/07 10:34:47;;;;;;;4.75;2.35;;;;;;;29.72;26.17;100824.78;4951867;29;20317;-66
2023/07/07 10:37:21;;;;;;;4.68;2.92;;;;;;;29.65;26.68;100821.53;4946097;29;20639;-67
2023/07/07 10:39:56;;;;;;;4.95;2.63;;;;;;;29.58;26.30;100822.84;4946484;29;20206;-67
2023/07/07 10:42:24;;;;;;;5.97;2.63;;;;;;;29.69;26.60;100819.50;4952385;29;20212;-67
2023/07/07 10:44:52;;;;;;;5.32;2.78;;;;;;;29.69;26.67;100806.72;4949857;29;20720;-66
2023/07/07 10:47:23;;;;;;;9.20;3.00;;;;;;;29.87;26.55;100812.94;4951338;28;20209;-67
2023/07/07 10:49:50;;;;;;;4.65;3.08;;;;;;;29.77;26.32;100815.34;4948650;28;20198;-67
2023/07/07 10:52:55;;;;;;;7.47;2.90;;;;;;;29.99;26.32;100814.91;4949263;28;20199;-67
2023/07/07 10:55:49;;;;;;;3.85;2.80;;;;;;;30.26;25.79;100798.72;4952138;28;20228;-67
2023/07/07 10:58:50;;;;;;;4.20;2.80;;;;;;;30.47;25.59;100805.59;4953986;28;20211;-67
2023/07/07 11:01:34;;;;;;;5.40;3.03;;;;;;;30.70;25.18;100806.03;4947419;28;20198;-67
2023/07/07 11:04:10;;;;;;;3.90;2.90;;;;;;;30.83;24.70;100807.03;4953214;28;20560;-67
2023/07/07 11:06:59;;;;;;;5.40;3.00;;;;;;;30.96;24.17;100812.56;4945705;28;20913;-67
2023/07/07 11:09:53;;;;;;;8.90;3.15;;;;;;;30.98;24.25;100799.66;4947854;28;20210;-67
2023/07/07 11:12:27;;;;;;;6.95;3.25;;;;;;;30.81;24.20;100789.78;4953006;28;20202;-67
2023/07/07 11:15:11;;;;;;;5.60;3.15;;;;;;;30.82;24.05;100788.81;4949862;28;20296;-67
2023/07/07 11:18:01;;;;;;;4.70;3.10;;;;;;;30.74;23.76;100781.13;4949741;28;20202;-67
2023/07/07 11:20:44;;;;;;;5.22;3.00;;;;;;;30.86;24.44;100779.47;4945697;28;20254;-67
2023/07/07 11:23:32;;;;;;;4.18;2.83;;;;;;;31.05;24.75;100782.75;4950214;28;20667;-66
2023/07/07 11:26:07;;;;;;;7.63;3.05;;;;;;;31.08;24.60;100781.66;4951215;28;20281;-67
2023/07/07 11:28:46;;;;;;;3.95;2.80;;;;;;;31.15;24.31;100783.00;4954636;28;20619;-67
2023/07/07 11:31:38;;;;;;;6.50;3.30;;;;;;;31.13;24.34;100777.66;4952714;28;20672;-67
2023/07/07 11:34:24;;;;;;;5.95;3.83;;;;;;;31.12;23.32;100778.63;4947615;28;20718;-66
2023/07/07 11:37:11;;;;;;;4.63;3.33;;;;;;;31.10;23.75;100774.22;4952110;28;20198;-67
2023/07/07 11:39:56;;;;;;;5.18;3.72;;;;;;;31.22;22.86;100768.00;4955216;28;20198;-67
2023/07/07 11:42:41;;;;;;;5.50;3.38;;;;;;;31.28;22.96;100755.75;4950216;28;20207;-67